Lattakia, Syria

8:20 AM EEST on October 23, 2014 (GMT +0300)
Bassel Al-Assad International | Change Station
CLOSE
Current Station
Airport
Location: Lattakia,
Elevation: 154 ft
Nearby Weather Stations

Elev 154 ft 35.40 °N, 35.95 °E | Updated 20 minutes ago

Mostly Cloudy
Mostly Cloudy
64 °F
Feels Like 64 °F
N
7
Wind Variable Wind from NNE

Today
High -- | Low -- °F
--% Chance of Precip.
Yesterday
High -- | Low -- °F
Precip. -- in
6:50 AM 5:51 PM
Waning Crescent, 1% visible
Pressure 29.95 in
Visibility 6.2 miles
Clouds Scattered Clouds 3000 ft
Mostly Cloudy 10000 ft
Dew Point 52 °F
Humidity 64%
Rainfall 0.00 in
Snow Depth Not available.
UV 0 out of 12
Pollen Not available.
Air Quality Not available.
Flu Activity Not available.
METAR OSLK 230500Z 02006KT 9999 SCT030 BKN100 18/11 Q1014

More Conditions Fewer Conditions

Pressure 29.95 in
Visibility 6.2 miles
Clouds Scattered Clouds 3000 ft
Mostly Cloudy 10000 ft
Dew Point 52 °F
Humidity 64%
Rainfall 0.00 in
Snow Depth Not available.
UV 0 out of 12
Pollen Not available.
Air Quality Not available.
Flu Activity Not available.
METAR OSLK 230500Z 02006KT 9999 SCT030 BKN100 18/11 Q1014

More Conditions Fewer Conditions

10-Day Weather Forecast

Almanac

Astronomy

Oct. 23, 2014 Rise Set
Actual Time 6:50 AM EEST 5:51 PM EEST
Civil Twilight 6:24 AM EEST 6:17 PM EEST
Nautical Twilight 5:54 AM EEST 6:47 PM EEST
Astronomical Twilight 5:24 AM EEST 7:17 PM EEST
Moon 6:10 AM EEST 5:40 PM EEST
Length of Visible Light 11h 53m
Length of Day
11h 01m
Tomorrow will be 2m 5s shorter.
Waning Crescent, 1% of the Moon is Illuminated
Today
Waning Crescent
Oct 23
New
Oct 30
First Quarter
Nov 6
Full
Nov 14
Last Quarter

Yesterday's Extremes

Country Highs Country Lows

Community

WunderPhotos

Upload Photos

1,764,170 photos uploaded!

Nearby

Snow Depth

Not available.

Earthquake Activity

City Distance Mag. Time & Date
No recent earthquake activity has been reported nearby.
Minimum magnitude displayed is 2.5.

Coastal Water Temperatures

Place Temperature
No Stations Reporting

Nearby Weather Stations